sensor_id;sensor_type;location;lat;lon;timestamp;P1;durP1;ratioP1;P2;durP2;ratioP2
43345;SDS011;28937;51.160;4.146;2023-08-06T00:02:19;2.97;;;1.13;;
43345;SDS011;28937;51.160;4.146;2023-08-06T00:04:44;2.65;;;1.20;;
43345;SDS011;28937;51.160;4.146;2023-08-06T00:07:10;2.75;;;1.50;;
43345;SDS011;28937;51.160;4.146;2023-08-06T00:09:35;4.63;;;1.08;;
43345;SDS011;28937;51.160;4.146;2023-08-06T00:12:01;2.08;;;1.25;;
43345;SDS011;28937;51.160;4.146;2023-08-06T00:14:27;3.05;;;1.65;;
43345;SDS011;28937;51.160;4.146;2023-08-06T00:16:52;6.80;;;1.83;;
43345;SDS011;28937;51.160;4.146;2023-08-06T00:19:18;3.60;;;1.50;;
43345;SDS011;28937;51.160;4.146;2023-08-06T00:21:44;2.55;;;1.60;;
43345;SDS011;28937;51.160;4.146;2023-08-06T00:24:09;4.28;;;1.80;;
43345;SDS011;28937;51.160;4.146;2023-08-06T00:26:35;3.05;;;1.83;;
43345;SDS011;28937;51.160;4.146;2023-08-06T00:29:00;2.85;;;1.55;;
43345;SDS011;28937;51.160;4.146;2023-08-06T00:31:26;3.58;;;2.00;;
43345;SDS011;28937;51.160;4.146;2023-08-06T00:33:51;3.80;;;1.73;;
43345;SDS011;28937;51.160;4.146;2023-08-06T00:36:17;3.55;;;1.92;;
43345;SDS011;28937;51.160;4.146;2023-08-06T00:38:43;7.43;;;2.03;;
43345;SDS011;28937;51.160;4.146;2023-08-06T00:41:08;2.22;;;1.55;;
43345;SDS011;28937;51.160;4.146;2023-08-06T00:43:34;3.72;;;2.10;;
43345;SDS011;28937;51.160;4.146;2023-08-06T00:45:59;3.60;;;1.67;;
43345;SDS011;28937;51.160;4.146;2023-08-06T00:48:25;4.43;;;2.25;;
43345;SDS011;28937;51.160;4.146;2023-08-06T00:50:51;3.70;;;2.00;;
43345;SDS011;28937;51.160;4.146;2023-08-06T00:53:17;5.28;;;2.15;;
43345;SDS011;28937;51.160;4.146;2023-08-06T00:55:43;5.10;;;1.92;;
43345;SDS011;28937;51.160;4.146;2023-08-06T00:58:10;5.05;;;2.50;;
43345;SDS011;28937;51.160;4.146;2023-08-06T01:00:36;4.97;;;3.10;;
43345;SDS011;28937;51.160;4.146;2023-08-06T01:03:02;4.75;;;2.85;;
43345;SDS011;28937;51.160;4.146;2023-08-06T01:05:28;5.93;;;2.72;;
43345;SDS011;28937;51.160;4.146;2023-08-06T01:13:43;5.20;;;3.30;;
43345;SDS011;28937;51.160;4.146;2023-08-06T01:16:14;8.48;;;3.70;;
43345;SDS011;28937;51.160;4.146;2023-08-06T01:18:42;5.55;;;3.28;;
43345;SDS011;28937;51.160;4.146;2023-08-06T01:21:11;6.60;;;3.63;;
43345;SDS011;28937;51.160;4.146;2023-08-06T01:23:40;6.25;;;3.20;;
43345;SDS011;28937;51.160;4.146;2023-08-06T01:28:48;6.25;;;3.92;;
43345;SDS011;28937;51.160;4.146;2023-08-06T01:31:24;4.75;;;3.53;;
43345;SDS011;28937;51.160;4.146;2023-08-06T01:33:55;6.10;;;4.50;;
43345;SDS011;28937;51.160;4.146;2023-08-06T01:36:23;8.25;;;4.03;;
43345;SDS011;28937;51.160;4.146;2023-08-06T01:38:51;4.35;;;3.67;;
43345;SDS011;28937;51.160;4.146;2023-08-06T01:41:18;7.97;;;4.20;;
43345;SDS011;28937;51.160;4.146;2023-08-06T01:43:44;5.55;;;4.60;;
43345;SDS011;28937;51.160;4.146;2023-08-06T01:46:09;7.57;;;4.43;;
43345;SDS011;28937;51.160;4.146;2023-08-06T01:48:35;6.25;;;5.10;;
43345;SDS011;28937;51.160;4.146;2023-08-06T01:51:01;7.05;;;5.70;;
43345;SDS011;28937;51.160;4.146;2023-08-06T01:53:28;8.35;;;5.60;;
43345;SDS011;28937;51.160;4.146;2023-08-06T01:55:54;8.07;;;5.25;;
43345;SDS011;28937;51.160;4.146;2023-08-06T01:58:20;6.18;;;5.05;;
43345;SDS011;28937;51.160;4.146;2023-08-06T02:00:45;9.68;;;6.20;;
43345;SDS011;28937;51.160;4.146;2023-08-06T02:03:11;7.05;;;5.82;;
43345;SDS011;28937;51.160;4.146;2023-08-06T02:05:36;6.75;;;6.00;;
43345;SDS011;28937;51.160;4.146;2023-08-06T02:08:02;15.70;;;7.38;;
43345;SDS011;28937;51.160;4.146;2023-08-06T02:10:28;6.93;;;6.22;;
43345;SDS011;28937;51.160;4.146;2023-08-06T02:12:53;10.63;;;6.85;;
43345;SDS011;28937;51.160;4.146;2023-08-06T02:15:19;9.00;;;6.80;;
43345;SDS011;28937;51.160;4.146;2023-08-06T02:17:44;8.73;;;7.78;;
43345;SDS011;28937;51.160;4.146;2023-08-06T02:20:10;9.40;;;7.75;;
43345;SDS011;28937;51.160;4.146;2023-08-06T02:22:35;8.35;;;6.88;;
43345;SDS011;28937;51.160;4.146;2023-08-06T02:25:01;8.55;;;7.28;;
43345;SDS011;28937;51.160;4.146;2023-08-06T02:27:27;10.45;;;7.82;;
43345;SDS011;28937;51.160;4.146;2023-08-06T02:29:52;10.93;;;7.93;;
43345;SDS011;28937;51.160;4.146;2023-08-06T02:32:18;10.82;;;7.05;;
43345;SDS011;28937;51.160;4.146;2023-08-06T02:34:43;13.20;;;6.68;;
43345;SDS011;28937;51.160;4.146;2023-08-06T02:37:09;7.93;;;6.93;;
43345;SDS011;28937;51.160;4.146;2023-08-06T02:39:34;8.80;;;6.57;;
43345;SDS011;28937;51.160;4.146;2023-08-06T02:42:01;11.18;;;7.07;;
43345;SDS011;28937;51.160;4.146;2023-08-06T02:44:27;9.80;;;7.18;;
43345;SDS011;28937;51.160;4.146;2023-08-06T02:46:53;11.68;;;7.00;;
43345;SDS011;28937;51.160;4.146;2023-08-06T02:49:19;8.38;;;6.68;;
43345;SDS011;28937;51.160;4.146;2023-08-06T02:51:46;8.18;;;6.40;;
43345;SDS011;28937;51.160;4.146;2023-08-06T02:54:11;7.82;;;6.18;;
43345;SDS011;28937;51.160;4.146;2023-08-06T02:56:37;9.70;;;5.88;;
43345;SDS011;28937;51.160;4.146;2023-08-06T02:59:03;6.75;;;6.05;;
43345;SDS011;28937;51.160;4.146;2023-08-06T03:01:29;10.25;;;6.45;;
43345;SDS011;28937;51.160;4.146;2023-08-06T03:03:54;6.28;;;5.43;;
43345;SDS011;28937;51.160;4.146;2023-08-06T03:06:20;6.85;;;5.93;;
43345;SDS011;28937;51.160;4.146;2023-08-06T03:08:46;7.82;;;5.45;;
43345;SDS011;28937;51.160;4.146;2023-08-06T03:11:11;6.80;;;5.63;;
43345;SDS011;28937;51.160;4.146;2023-08-06T03:13:37;5.18;;;4.55;;
43345;SDS011;28937;51.160;4.146;2023-08-06T03:16:02;5.40;;;4.35;;
43345;SDS011;28937;51.160;4.146;2023-08-06T03:18:28;4.65;;;4.28;;
43345;SDS011;28937;51.160;4.146;2023-08-06T03:20:54;5.97;;;4.35;;
43345;SDS011;28937;51.160;4.146;2023-08-06T03:23:19;3.17;;;2.80;;
43345;SDS011;28937;51.160;4.146;2023-08-06T03:25:45;3.58;;;2.17;;
43345;SDS011;28937;51.160;4.146;2023-08-06T03:28:11;5.00;;;1.90;;
43345;SDS011;28937;51.160;4.146;2023-08-06T03:30:37;1.95;;;1.60;;
43345;SDS011;28937;51.160;4.146;2023-08-06T03:33:03;1.10;;;1.00;;
43345;SDS011;28937;51.160;4.146;2023-08-06T03:35:28;1.58;;;1.00;;
43345;SDS011;28937;51.160;4.146;2023-08-06T03:37:54;1.75;;;0.80;;
43345;SDS011;28937;51.160;4.146;2023-08-06T03:40:20;3.55;;;1.60;;
43345;SDS011;28937;51.160;4.146;2023-08-06T03:42:45;10.50;;;1.73;;
43345;SDS011;28937;51.160;4.146;2023-08-06T03:45:11;1.75;;;1.35;;
43345;SDS011;28937;51.160;4.146;2023-08-06T03:47:37;3.88;;;1.13;;
43345;SDS011;28937;51.160;4.146;2023-08-06T03:50:02;1.58;;;1.15;;
43345;SDS011;28937;51.160;4.146;2023-08-06T03:52:28;5.90;;;1.20;;
43345;SDS011;28937;51.160;4.146;2023-08-06T03:54:54;4.05;;;1.40;;
43345;SDS011;28937;51.160;4.146;2023-08-06T03:57:19;6.13;;;2.45;;
43345;SDS011;28937;51.160;4.146;2023-08-06T03:59:45;6.32;;;2.30;;
43345;SDS011;28937;51.160;4.146;2023-08-06T04:02:10;3.03;;;1.25;;
43345;SDS011;28937;51.160;4.146;2023-08-06T04:04:36;8.05;;;1.80;;
43345;SDS011;28937;51.160;4.146;2023-08-06T04:07:02;10.20;;;2.10;;
43345;SDS011;28937;51.160;4.146;2023-08-06T04:09:28;6.07;;;2.08;;
43345;SDS011;28937;51.160;4.146;2023-08-06T04:11:54;6.88;;;2.05;;
43345;SDS011;28937;51.160;4.146;2023-08-06T04:14:20;7.45;;;2.53;;
43345;SDS011;28937;51.160;4.146;2023-08-06T04:16:46;6.28;;;2.53;;
43345;SDS011;28937;51.160;4.146;2023-08-06T04:19:11;9.45;;;2.75;;
43345;SDS011;28937;51.160;4.146;2023-08-06T04:21:37;8.43;;;3.58;;
43345;SDS011;28937;51.160;4.146;2023-08-06T04:24:03;9.82;;;3.58;;
43345;SDS011;28937;51.160;4.146;2023-08-06T04:26:28;7.45;;;3.17;;
43345;SDS011;28937;51.160;4.146;2023-08-06T04:28:54;8.10;;;2.78;;
43345;SDS011;28937;51.160;4.146;2023-08-06T04:31:20;5.55;;;3.15;;
43345;SDS011;28937;51.160;4.146;2023-08-06T04:33:47;6.75;;;3.45;;
43345;SDS011;28937;51.160;4.146;2023-08-06T04:36:12;7.00;;;3.38;;
43345;SDS011;28937;51.160;4.146;2023-08-06T04:38:38;6.07;;;3.47;;
43345;SDS011;28937;51.160;4.146;2023-08-06T04:41:06;7.28;;;3.40;;
43345;SDS011;28937;51.160;4.146;2023-08-06T04:43:31;11.48;;;3.10;;
43345;SDS011;28937;51.160;4.146;2023-08-06T04:45:57;8.35;;;3.47;;
43345;SDS011;28937;51.160;4.146;2023-08-06T04:48:23;10.48;;;4.15;;
43345;SDS011;28937;51.160;4.146;2023-08-06T04:50:49;11.15;;;4.05;;
43345;SDS011;28937;51.160;4.146;2023-08-06T04:53:16;12.18;;;4.32;;
43345;SDS011;28937;51.160;4.146;2023-08-06T04:55:41;9.50;;;4.03;;
43345;SDS011;28937;51.160;4.146;2023-08-06T04:58:08;11.77;;;3.67;;
43345;SDS011;28937;51.160;4.146;2023-08-06T05:00:35;15.05;;;4.32;;
43345;SDS011;28937;51.160;4.146;2023-08-06T05:03:01;11.07;;;3.90;;
43345;SDS011;28937;51.160;4.146;2023-08-06T05:05:27;10.80;;;3.92;;
43345;SDS011;28937;51.160;4.146;2023-08-06T05:07:54;9.00;;;3.35;;
43345;SDS011;28937;51.160;4.146;2023-08-06T05:10:26;7.82;;;3.00;;
43345;SDS011;28937;51.160;4.146;2023-08-06T05:12:53;13.52;;;3.55;;
43345;SDS011;28937;51.160;4.146;2023-08-06T05:15:18;10.70;;;2.88;;
43345;SDS011;28937;51.160;4.146;2023-08-06T05:17:44;7.50;;;2.97;;
43345;SDS011;28937;51.160;4.146;2023-08-06T05:20:10;9.90;;;3.08;;
43345;SDS011;28937;51.160;4.146;2023-08-06T05:22:36;8.02;;;2.92;;
43345;SDS011;28937;51.160;4.146;2023-08-06T05:25:02;13.02;;;3.60;;
43345;SDS011;28937;51.160;4.146;2023-08-06T05:27:27;11.70;;;3.42;;
43345;SDS011;28937;51.160;4.146;2023-08-06T05:29:54;10.30;;;2.95;;
43345;SDS011;28937;51.160;4.146;2023-08-06T05:32:21;6.35;;;2.60;;
43345;SDS011;28937;51.160;4.146;2023-08-06T05:34:47;7.90;;;2.75;;
43345;SDS011;28937;51.160;4.146;2023-08-06T05:37:12;7.05;;;2.20;;
43345;SDS011;28937;51.160;4.146;2023-08-06T05:39:38;9.85;;;3.03;;
43345;SDS011;28937;51.160;4.146;2023-08-06T05:42:04;8.65;;;2.70;;
43345;SDS011;28937;51.160;4.146;2023-08-06T05:44:30;7.18;;;2.50;;
43345;SDS011;28937;51.160;4.146;2023-08-06T05:46:56;12.38;;;3.35;;
43345;SDS011;28937;51.160;4.146;2023-08-06T05:49:21;6.25;;;2.75;;
43345;SDS011;28937;51.160;4.146;2023-08-06T05:51:47;10.68;;;3.35;;
43345;SDS011;28937;51.160;4.146;2023-08-06T05:54:13;7.70;;;3.08;;
43345;SDS011;28937;51.160;4.146;2023-08-06T05:56:39;7.05;;;2.70;;
43345;SDS011;28937;51.160;4.146;2023-08-06T05:59:04;9.10;;;2.65;;
43345;SDS011;28937;51.160;4.146;2023-08-06T06:01:30;7.65;;;2.97;;
43345;SDS011;28937;51.160;4.146;2023-08-06T06:03:56;10.02;;;2.88;;
43345;SDS011;28937;51.160;4.146;2023-08-06T06:06:21;8.73;;;3.58;;
43345;SDS011;28937;51.160;4.146;2023-08-06T06:08:47;11.88;;;3.55;;
43345;SDS011;28937;51.160;4.146;2023-08-06T06:11:12;7.90;;;3.10;;
43345;SDS011;28937;51.160;4.146;2023-08-06T06:13:38;11.48;;;3.58;;
43345;SDS011;28937;51.160;4.146;2023-08-06T06:16:04;17.55;;;4.28;;
43345;SDS011;28937;51.160;4.146;2023-08-06T06:18:30;9.50;;;2.88;;
43345;SDS011;28937;51.160;4.146;2023-08-06T06:20:56;12.07;;;3.78;;
43345;SDS011;28937;51.160;4.146;2023-08-06T06:23:21;11.23;;;3.63;;
43345;SDS011;28937;51.160;4.146;2023-08-06T06:25:47;9.60;;;3.03;;
43345;SDS011;28937;51.160;4.146;2023-08-06T06:28:16;11.43;;;3.13;;
43345;SDS011;28937;51.160;4.146;2023-08-06T06:30:42;5.40;;;2.53;;
43345;SDS011;28937;51.160;4.146;2023-08-06T06:33:08;6.78;;;2.88;;
43345;SDS011;28937;51.160;4.146;2023-08-06T06:35:33;7.40;;;2.25;;
43345;SDS011;28937;51.160;4.146;2023-08-06T06:37:59;5.18;;;2.25;;
43345;SDS011;28937;51.160;4.146;2023-08-06T06:40:25;6.50;;;1.30;;
43345;SDS011;28937;51.160;4.146;2023-08-06T06:42:51;7.53;;;1.65;;
43345;SDS011;28937;51.160;4.146;2023-08-06T06:45:16;6.00;;;1.10;;
43345;SDS011;28937;51.160;4.146;2023-08-06T06:47:42;4.22;;;1.30;;
43345;SDS011;28937;51.160;4.146;2023-08-06T06:50:08;11.18;;;1.42;;
43345;SDS011;28937;51.160;4.146;2023-08-06T06:52:34;7.40;;;1.08;;
43345;SDS011;28937;51.160;4.146;2023-08-06T06:54:59;8.75;;;1.35;;
43345;SDS011;28937;51.160;4.146;2023-08-06T06:57:25;6.47;;;1.25;;
43345;SDS011;28937;51.160;4.146;2023-08-06T06:59:51;10.55;;;1.17;;
43345;SDS011;28937;51.160;4.146;2023-08-06T07:02:17;7.30;;;1.20;;
43345;SDS011;28937;51.160;4.146;2023-08-06T07:04:42;11.50;;;1.40;;
43345;SDS011;28937;51.160;4.146;2023-08-06T07:07:08;10.25;;;1.60;;
43345;SDS011;28937;51.160;4.146;2023-08-06T07:09:33;11.27;;;1.90;;
43345;SDS011;28937;51.160;4.146;2023-08-06T07:11:59;10.18;;;2.03;;
43345;SDS011;28937;51.160;4.146;2023-08-06T07:14:25;10.82;;;2.42;;
43345;SDS011;28937;51.160;4.146;2023-08-06T07:16:51;20.02;;;2.63;;
43345;SDS011;28937;51.160;4.146;2023-08-06T07:19:16;12.93;;;2.78;;
43345;SDS011;28937;51.160;4.146;2023-08-06T07:21:42;14.38;;;2.38;;
43345;SDS011;28937;51.160;4.146;2023-08-06T07:24:08;12.85;;;3.03;;
43345;SDS011;28937;51.160;4.146;2023-08-06T07:26:33;9.52;;;1.85;;
43345;SDS011;28937;51.160;4.146;2023-08-06T07:28:59;14.63;;;2.35;;
43345;SDS011;28937;51.160;4.146;2023-08-06T07:31:24;9.68;;;1.63;;
43345;SDS011;28937;51.160;4.146;2023-08-06T07:33:50;11.43;;;1.98;;
43345;SDS011;28937;51.160;4.146;2023-08-06T07:36:16;7.03;;;2.47;;
43345;SDS011;28937;51.160;4.146;2023-08-06T07:38:41;11.25;;;2.08;;
43345;SDS011;28937;51.160;4.146;2023-08-06T07:41:08;10.10;;;1.70;;
43345;SDS011;28937;51.160;4.146;2023-08-06T07:43:33;11.00;;;2.00;;
43345;SDS011;28937;51.160;4.146;2023-08-06T07:46:01;8.77;;;2.28;;
43345;SDS011;28937;51.160;4.146;2023-08-06T07:48:27;7.93;;;1.65;;
43345;SDS011;28937;51.160;4.146;2023-08-06T07:50:53;11.98;;;1.95;;
43345;SDS011;28937;51.160;4.146;2023-08-06T07:53:22;7.50;;;1.95;;
43345;SDS011;28937;51.160;4.146;2023-08-06T07:55:51;11.40;;;1.85;;
43345;SDS011;28937;51.160;4.146;2023-08-06T07:58:18;10.70;;;1.25;;
43345;SDS011;28937;51.160;4.146;2023-08-06T08:00:44;8.73;;;1.50;;
43345;SDS011;28937;51.160;4.146;2023-08-06T08:03:11;11.02;;;1.52;;
43345;SDS011;28937;51.160;4.146;2023-08-06T08:05:38;8.65;;;1.60;;
43345;SDS011;28937;51.160;4.146;2023-08-06T08:08:04;7.93;;;1.30;;
43345;SDS011;28937;51.160;4.146;2023-08-06T08:10:30;7.95;;;1.42;;
43345;SDS011;28937;51.160;4.146;2023-08-06T08:12:56;7.53;;;1.30;;
43345;SDS011;28937;51.160;4.146;2023-08-06T08:15:22;9.95;;;1.58;;
43345;SDS011;28937;51.160;4.146;2023-08-06T08:17:48;8.73;;;1.80;;
43345;SDS011;28937;51.160;4.146;2023-08-06T08:20:14;11.88;;;1.77;;
43345;SDS011;28937;51.160;4.146;2023-08-06T08:22:41;14.55;;;2.70;;
43345;SDS011;28937;51.160;4.146;2023-08-06T08:25:07;15.30;;;2.70;;
43345;SDS011;28937;51.160;4.146;2023-08-06T08:27:32;12.38;;;2.38;;
43345;SDS011;28937;51.160;4.146;2023-08-06T08:29:58;10.27;;;2.25;;
43345;SDS011;28937;51.160;4.146;2023-08-06T08:32:23;14.57;;;2.70;;
43345;SDS011;28937;51.160;4.146;2023-08-06T08:34:49;7.00;;;1.63;;
43345;SDS011;28937;51.160;4.146;2023-08-06T08:37:15;12.07;;;2.40;;
43345;SDS011;28937;51.160;4.146;2023-08-06T08:39:40;10.45;;;2.20;;
43345;SDS011;28937;51.160;4.146;2023-08-06T08:42:06;9.05;;;1.85;;
43345;SDS011;28937;51.160;4.146;2023-08-06T08:44:32;7.78;;;1.67;;
43345;SDS011;28937;51.160;4.146;2023-08-06T08:46:59;9.27;;;1.90;;
43345;SDS011;28937;51.160;4.146;2023-08-06T08:49:25;8.77;;;1.67;;
43345;SDS011;28937;51.160;4.146;2023-08-06T08:51:53;7.93;;;1.80;;
43345;SDS011;28937;51.160;4.146;2023-08-06T08:54:20;9.73;;;2.10;;
43345;SDS011;28937;51.160;4.146;2023-08-06T08:56:49;10.10;;;2.33;;
43345;SDS011;28937;51.160;4.146;2023-08-06T08:59:14;10.18;;;1.88;;
43345;SDS011;28937;51.160;4.146;2023-08-06T09:01:40;10.88;;;1.92;;
43345;SDS011;28937;51.160;4.146;2023-08-06T09:04:07;10.70;;;1.85;;
43345;SDS011;28937;51.160;4.146;2023-08-06T09:06:35;8.23;;;1.52;;
43345;SDS011;28937;51.160;4.146;2023-08-06T09:09:08;11.25;;;1.95;;
43345;SDS011;28937;51.160;4.146;2023-08-06T09:11:39;10.35;;;1.95;;
43345;SDS011;28937;51.160;4.146;2023-08-06T09:14:08;8.43;;;1.90;;
43345;SDS011;28937;51.160;4.146;2023-08-06T09:16:37;9.60;;;1.98;;
43345;SDS011;28937;51.160;4.146;2023-08-06T09:19:10;13.65;;;2.67;;
43345;SDS011;28937;51.160;4.146;2023-08-06T09:21:38;14.85;;;3.10;;
43345;SDS011;28937;51.160;4.146;2023-08-06T09:24:11;11.13;;;2.58;;
43345;SDS011;28937;51.160;4.146;2023-08-06T09:26:40;11.18;;;2.10;;
43345;SDS011;28937;51.160;4.146;2023-08-06T09:29:08;15.02;;;2.63;;
43345;SDS011;28937;51.160;4.146;2023-08-06T09:31:49;12.00;;;2.35;;
43345;SDS011;28937;51.160;4.146;2023-08-06T09:34:19;10.60;;;2.15;;
43345;SDS011;28937;51.160;4.146;2023-08-06T09:36:48;11.13;;;2.03;;
43345;SDS011;28937;51.160;4.146;2023-08-06T09:39:30;11.10;;;2.28;;
43345;SDS011;28937;51.160;4.146;2023-08-06T09:41:56;14.48;;;2.30;;
43345;SDS011;28937;51.160;4.146;2023-08-06T09:44:23;12.50;;;2.60;;
43345;SDS011;28937;51.160;4.146;2023-08-06T09:49:20;11.70;;;2.22;;
43345;SDS011;28937;51.160;4.146;2023-08-06T09:51:53;12.73;;;2.72;;
43345;SDS011;28937;51.160;4.146;2023-08-06T09:54:23;12.50;;;2.22;;
43345;SDS011;28937;51.160;4.146;2023-08-06T09:56:49;12.95;;;2.05;;
43345;SDS011;28937;51.160;4.146;2023-08-06T09:59:16;14.48;;;2.33;;
43345;SDS011;28937;51.160;4.146;2023-08-06T10:01:42;7.53;;;1.63;;
43345;SDS011;28937;51.160;4.146;2023-08-06T10:04:08;10.13;;;1.58;;
43345;SDS011;28937;51.160;4.146;2023-08-06T10:06:36;11.63;;;1.40;;
43345;SDS011;28937;51.160;4.146;2023-08-06T10:09:02;6.82;;;1.67;;
43345;SDS011;28937;51.160;4.146;2023-08-06T10:11:29;8.55;;;1.60;;
43345;SDS011;28937;51.160;4.146;2023-08-06T10:14:00;10.48;;;1.60;;
43345;SDS011;28937;51.160;4.146;2023-08-06T10:16:36;8.52;;;1.75;;
43345;SDS011;28937;51.160;4.146;2023-08-06T10:19:03;10.90;;;2.33;;
43345;SDS011;28937;51.160;4.146;2023-08-06T10:21:32;10.25;;;2.53;;
43345;SDS011;28937;51.160;4.146;2023-08-06T10:23:58;15.73;;;2.40;;
43345;SDS011;28937;51.160;4.146;2023-08-06T10:26:29;5.60;;;1.60;;
43345;SDS011;28937;51.160;4.146;2023-08-06T10:28:55;11.88;;;2.20;;
43345;SDS011;28937;51.160;4.146;2023-08-06T10:37:21;8.55;;;2.70;;
43345;SDS011;28937;51.160;4.146;2023-08-06T10:39:48;9.75;;;3.25;;
43345;SDS011;28937;51.160;4.146;2023-08-06T10:42:27;9.02;;;2.92;;
43345;SDS011;28937;51.160;4.146;2023-08-06T10:47:41;10.38;;;3.13;;
43345;SDS011;28937;51.160;4.146;2023-08-06T10:50:07;7.28;;;2.22;;
43345;SDS011;28937;51.160;4.146;2023-08-06T10:52:35;9.52;;;2.03;;
43345;SDS011;28937;51.160;4.146;2023-08-06T10:55:01;11.13;;;1.90;;
43345;SDS011;28937;51.160;4.146;2023-08-06T10:57:27;9.73;;;3.05;;
43345;SDS011;28937;51.160;4.146;2023-08-06T10:59:52;9.25;;;2.00;;
43345;SDS011;28937;51.160;4.146;2023-08-06T11:02:18;10.52;;;4.25;;
43345;SDS011;28937;51.160;4.146;2023-08-06T11:04:44;5.65;;;1.30;;
43345;SDS011;28937;51.160;4.146;2023-08-06T11:07:09;5.38;;;0.98;;
43345;SDS011;28937;51.160;4.146;2023-08-06T11:09:35;8.18;;;1.20;;
43345;SDS011;28937;51.160;4.146;2023-08-06T11:12:02;6.53;;;1.35;;
43345;SDS011;28937;51.160;4.146;2023-08-06T11:14:30;4.65;;;1.20;;
43345;SDS011;28937;51.160;4.146;2023-08-06T11:16:55;7.85;;;1.58;;
43345;SDS011;28937;51.160;4.146;2023-08-06T11:19:22;5.88;;;1.13;;
43345;SDS011;28937;51.160;4.146;2023-08-06T11:21:49;10.02;;;1.67;;
43345;SDS011;28937;51.160;4.146;2023-08-06T11:24:16;8.05;;;1.45;;
43345;SDS011;28937;51.160;4.146;2023-08-06T11:26:42;8.52;;;1.48;;
43345;SDS011;28937;51.160;4.146;2023-08-06T11:29:09;8.27;;;1.80;;
43345;SDS011;28937;51.160;4.146;2023-08-06T11:31:35;13.43;;;2.00;;
43345;SDS011;28937;51.160;4.146;2023-08-06T11:34:01;6.95;;;1.27;;
43345;SDS011;28937;51.160;4.146;2023-08-06T11:36:34;8.88;;;1.73;;
43345;SDS011;28937;51.160;4.146;2023-08-06T11:39:05;9.45;;;1.52;;
43345;SDS011;28937;51.160;4.146;2023-08-06T11:41:31;9.18;;;1.92;;
43345;SDS011;28937;51.160;4.146;2023-08-06T11:43:58;11.60;;;2.53;;
43345;SDS011;28937;51.160;4.146;2023-08-06T11:46:24;8.45;;;1.70;;
43345;SDS011;28937;51.160;4.146;2023-08-06T11:48:54;8.98;;;2.13;;
43345;SDS011;28937;51.160;4.146;2023-08-06T11:51:23;11.15;;;1.98;;
43345;SDS011;28937;51.160;4.146;2023-08-06T11:53:56;9.30;;;2.70;;
43345;SDS011;28937;51.160;4.146;2023-08-06T11:56:22;15.10;;;2.47;;
43345;SDS011;28937;51.160;4.146;2023-08-06T11:58:49;18.50;;;2.88;;
43345;SDS011;28937;51.160;4.146;2023-08-06T12:01:14;7.60;;;1.90;;
43345;SDS011;28937;51.160;4.146;2023-08-06T12:03:40;14.35;;;2.42;;
43345;SDS011;28937;51.160;4.146;2023-08-06T12:06:06;8.52;;;1.80;;
43345;SDS011;28937;51.160;4.146;2023-08-06T12:08:32;12.32;;;2.15;;
43345;SDS011;28937;51.160;4.146;2023-08-06T12:10:58;10.43;;;2.15;;
43345;SDS011;28937;51.160;4.146;2023-08-06T12:13:24;13.77;;;1.60;;
43345;SDS011;28937;51.160;4.146;2023-08-06T12:15:49;12.27;;;2.00;;
43345;SDS011;28937;51.160;4.146;2023-08-06T12:18:17;11.15;;;2.67;;
43345;SDS011;28937;51.160;4.146;2023-08-06T12:20:43;12.10;;;2.53;;
43345;SDS011;28937;51.160;4.146;2023-08-06T12:23:09;13.00;;;2.17;;
43345;SDS011;28937;51.160;4.146;2023-08-06T12:25:35;10.27;;;2.55;;
43345;SDS011;28937;51.160;4.146;2023-08-06T12:28:00;10.07;;;2.08;;
43345;SDS011;28937;51.160;4.146;2023-08-06T12:30:26;14.95;;;2.40;;
43345;SDS011;28937;51.160;4.146;2023-08-06T12:32:52;12.95;;;2.80;;
43345;SDS011;28937;51.160;4.146;2023-08-06T12:35:17;10.07;;;2.75;;
43345;SDS011;28937;51.160;4.146;2023-08-06T12:37:43;9.52;;;2.92;;
43345;SDS011;28937;51.160;4.146;2023-08-06T12:40:10;12.40;;;2.90;;
43345;SDS011;28937;51.160;4.146;2023-08-06T12:42:36;11.85;;;2.30;;
43345;SDS011;28937;51.160;4.146;2023-08-06T12:45:02;12.88;;;2.65;;
43345;SDS011;28937;51.160;4.146;2023-08-06T12:47:27;11.13;;;2.53;;
43345;SDS011;28937;51.160;4.146;2023-08-06T12:49:53;13.48;;;3.35;;
43345;SDS011;28937;51.160;4.146;2023-08-06T12:52:19;10.40;;;2.83;;
43345;SDS011;28937;51.160;4.146;2023-08-06T12:54:45;13.15;;;3.10;;
43345;SDS011;28937;51.160;4.146;2023-08-06T12:57:11;8.77;;;1.80;;
43345;SDS011;28937;51.160;4.146;2023-08-06T12:59:37;8.98;;;2.15;;
43345;SDS011;28937;51.160;4.146;2023-08-06T13:02:02;10.82;;;2.60;;
43345;SDS011;28937;51.160;4.146;2023-08-06T13:04:29;12.57;;;3.20;;
43345;SDS011;28937;51.160;4.146;2023-08-06T13:06:54;10.00;;;2.55;;
43345;SDS011;28937;51.160;4.146;2023-08-06T13:09:20;7.32;;;1.73;;
43345;SDS011;28937;51.160;4.146;2023-08-06T13:11:46;12.80;;;2.38;;
43345;SDS011;28937;51.160;4.146;2023-08-06T13:14:15;14.00;;;4.28;;
43345;SDS011;28937;51.160;4.146;2023-08-06T13:16:42;14.70;;;4.10;;
43345;SDS011;28937;51.160;4.146;2023-08-06T13:19:08;14.60;;;4.18;;
43345;SDS011;28937;51.160;4.146;2023-08-06T13:24:05;10.63;;;2.67;;
43345;SDS011;28937;51.160;4.146;2023-08-06T13:26:31;10.85;;;2.28;;
43345;SDS011;28937;51.160;4.146;2023-08-06T13:28:58;11.68;;;2.85;;
43345;SDS011;28937;51.160;4.146;2023-08-06T13:31:24;13.35;;;3.05;;
43345;SDS011;28937;51.160;4.146;2023-08-06T13:33:50;14.73;;;3.45;;
43345;SDS011;28937;51.160;4.146;2023-08-06T13:36:16;12.75;;;3.78;;
43345;SDS011;28937;51.160;4.146;2023-08-06T13:38:42;13.82;;;3.03;;
43345;SDS011;28937;51.160;4.146;2023-08-06T13:41:08;10.30;;;2.63;;
43345;SDS011;28937;51.160;4.146;2023-08-06T13:43:33;12.45;;;2.22;;
43345;SDS011;28937;51.160;4.146;2023-08-06T13:45:59;12.38;;;2.63;;
43345;SDS011;28937;51.160;4.146;2023-08-06T13:48:25;11.95;;;2.90;;
43345;SDS011;28937;51.160;4.146;2023-08-06T13:50:50;11.52;;;2.33;;
43345;SDS011;28937;51.160;4.146;2023-08-06T13:53:16;13.32;;;3.03;;
43345;SDS011;28937;51.160;4.146;2023-08-06T13:55:42;11.90;;;2.92;;
43345;SDS011;28937;51.160;4.146;2023-08-06T13:58:07;10.63;;;2.78;;
43345;SDS011;28937;51.160;4.146;2023-08-06T14:00:33;13.77;;;3.20;;
43345;SDS011;28937;51.160;4.146;2023-08-06T14:03:00;14.18;;;3.72;;
43345;SDS011;28937;51.160;4.146;2023-08-06T14:05:26;13.13;;;3.00;;
43345;SDS011;28937;51.160;4.146;2023-08-06T14:07:52;13.13;;;2.78;;
43345;SDS011;28937;51.160;4.146;2023-08-06T14:10:17;8.32;;;2.60;;
43345;SDS011;28937;51.160;4.146;2023-08-06T14:12:43;7.97;;;2.22;;
43345;SDS011;28937;51.160;4.146;2023-08-06T14:15:09;8.02;;;2.70;;
43345;SDS011;28937;51.160;4.146;2023-08-06T14:17:35;12.52;;;2.65;;
43345;SDS011;28937;51.160;4.146;2023-08-06T14:20:01;7.75;;;2.40;;
43345;SDS011;28937;51.160;4.146;2023-08-06T14:22:28;6.70;;;1.95;;
43345;SDS011;28937;51.160;4.146;2023-08-06T14:24:55;8.30;;;2.92;;
43345;SDS011;28937;51.160;4.146;2023-08-06T14:27:21;9.07;;;1.83;;
43345;SDS011;28937;51.160;4.146;2023-08-06T14:29:47;7.78;;;1.38;;
43345;SDS011;28937;51.160;4.146;2023-08-06T14:32:12;6.35;;;1.67;;
43345;SDS011;28937;51.160;4.146;2023-08-06T14:34:38;8.30;;;1.20;;
43345;SDS011;28937;51.160;4.146;2023-08-06T14:37:04;7.80;;;1.50;;
43345;SDS011;28937;51.160;4.146;2023-08-06T14:39:30;8.45;;;1.63;;
43345;SDS011;28937;51.160;4.146;2023-08-06T14:41:56;11.20;;;2.13;;
43345;SDS011;28937;51.160;4.146;2023-08-06T14:44:22;8.10;;;2.15;;
43345;SDS011;28937;51.160;4.146;2023-08-06T14:46:47;7.38;;;2.47;;
43345;SDS011;28937;51.160;4.146;2023-08-06T14:49:13;11.52;;;3.42;;
43345;SDS011;28937;51.160;4.146;2023-08-06T14:51:39;11.27;;;2.97;;
43345;SDS011;28937;51.160;4.146;2023-08-06T14:54:04;9.32;;;3.30;;
43345;SDS011;28937;51.160;4.146;2023-08-06T14:56:30;11.82;;;4.35;;
43345;SDS011;28937;51.160;4.146;2023-08-06T14:58:56;12.95;;;3.53;;
43345;SDS011;28937;51.160;4.146;2023-08-06T15:01:21;14.25;;;3.30;;